Time;durP1;ratioP1;P1;durP2;ratioP2;P2;SDS_P1;SDS_P2;PMS_P1;PMS_P2;Temp;Humidity;BMP_temperature;BMP_pressure;BME280_temperature;BME280_humidity;BME280_pressure;Samples;Min_cycle;Max_cycle;Signal;HPM_P1;HPM_P2
2022/03/17 00:00:56;;;;;;;28.65;18.98;;;10.40;99.90;;;;;;5138157;27;20439;-81
2022/03/17 00:03:22;;;;;;;29.88;20.88;;;10.40;99.90;;;;;;5120976;27;20031;-81
2022/03/17 00:05:48;;;;;;;27.20;17.73;;;10.40;99.90;;;;;;5120737;27;20081;-81
2022/03/17 00:08:17;;;;;;;31.50;21.50;;;10.30;99.90;;;;;;5119589;27;20031;-81
2022/03/17 00:10:43;;;;;;;29.45;18.92;;;10.30;99.90;;;;;;5103119;27;20046;-81
2022/03/17 00:13:09;;;;;;;31.50;21.17;;;10.30;99.90;;;;;;5120113;27;20039;-81
2022/03/17 00:15:35;;;;;;;28.70;19.48;;;10.20;99.90;;;;;;5120314;27;20038;-81
2022/03/17 00:18:01;;;;;;;30.95;20.55;;;10.20;99.90;;;;;;5103374;27;20115;-81
2022/03/17 00:20:26;;;;;;;23.98;13.68;;;10.20;99.90;;;;;;5140838;27;20451;-81
2022/03/17 00:22:52;;;;;;;27.92;17.85;;;10.20;99.90;;;;;;5123890;27;20042;-81
2022/03/17 00:25:18;;;;;;;31.00;19.88;;;10.10;99.90;;;;;;5140948;27;20038;-81
2022/03/17 00:27:43;;;;;;;27.80;16.20;;;10.10;99.90;;;;;;5089843;27;20054;-81
2022/03/17 00:30:10;;;;;;;28.70;19.38;;;10.10;99.90;;;;;;5140707;27;20050;-81
2022/03/17 00:32:38;;;;;;;31.08;22.05;;;10.10;99.90;;;;;;5140823;27;20117;-81
2022/03/17 00:37:52;;;;;;;29.65;20.40;;;10.10;99.90;;;;;;5126209;27;20056;-81
2022/03/17 00:40:18;;;;;;;29.30;20.20;;;10.10;99.90;;;;;;5123976;27;20030;-81
2022/03/17 00:42:44;;;;;;;29.75;21.10;;;10.10;99.90;;;;;;5123819;27;20103;-81
2022/03/17 00:45:12;;;;;;;29.52;21.25;;;10.10;99.90;;;;;;5106508;27;20473;-81
2022/03/17 00:47:38;;;;;;;30.20;20.05;;;10.00;99.90;;;;;;5123594;27;20431;-81
2022/03/17 00:50:06;;;;;;;22.23;12.95;;;10.10;99.90;;;;;;5106582;27;20133;-81
2022/03/17 00:52:32;;;;;;;33.05;21.05;;;10.10;99.90;;;;;;5105837;27;20031;-81
2022/03/17 00:54:57;;;;;;;31.85;18.35;;;10.10;99.90;;;;;;5106448;27;20392;-81
2022/03/17 00:57:24;;;;;;;28.33;19.05;;;10.20;99.90;;;;;;5123179;27;20038;-81
2022/03/17 00:59:50;;;;;;;25.95;15.10;;;10.10;99.90;;;;;;5117661;27;20046;-81
2022/03/17 01:02:16;;;;;;;22.15;14.40;;;10.20;99.90;;;;;;5112303;27;20489;-81
2022/03/17 01:04:42;;;;;;;29.60;19.20;;;10.20;99.90;;;;;;5122736;27;20034;-81
2022/03/17 01:07:08;;;;;;;26.75;18.25;;;10.20;99.90;;;;;;5105414;27;20080;-81
2022/03/17 01:09:34;;;;;;;21.38;12.77;;;10.20;99.90;;;;;;5123388;27;20042;-81
2022/03/17 01:12:00;;;;;;;29.48;20.77;;;10.20;99.90;;;;;;5122565;27;20047;-81
2022/03/17 01:14:26;;;;;;;21.08;10.95;;;10.20;99.90;;;;;;5123088;27;20121;-81
2022/03/17 01:16:52;;;;;;;19.00;11.02;;;10.20;99.90;;;;;;5088930;27;20093;-81
2022/03/17 01:19:21;;;;;;;26.38;18.35;;;10.30;99.90;;;;;;5123407;27;20034;-81
2022/03/17 01:21:49;;;;;;;29.55;18.10;;;10.20;99.90;;;;;;5121713;27;20103;-81
2022/03/17 01:24:16;;;;;;;27.48;18.20;;;10.20;99.90;;;;;;5122272;27;20497;-81
2022/03/17 01:26:42;;;;;;;29.40;19.95;;;10.20;99.90;;;;;;5122403;27;20045;-81
2022/03/17 01:29:08;;;;;;;29.08;20.85;;;10.10;99.90;;;;;;5122508;27;20402;-81
2022/03/17 01:31:34;;;;;;;30.20;19.02;;;10.10;99.90;;;;;;5121932;27;20031;-81
2022/03/17 01:34:00;;;;;;;30.38;20.23;;;10.10;99.90;;;;;;5122166;27;20034;-81
2022/03/17 01:36:28;;;;;;;29.73;19.80;;;10.10;99.90;;;;;;5121336;27;20035;-81
2022/03/17 01:38:54;;;;;;;30.20;21.05;;;10.10;99.90;;;;;;5122201;27;20057;-81
2022/03/17 01:41:20;;;;;;;31.40;20.10;;;10.10;99.90;;;;;;5139192;27;20039;-81
2022/03/17 01:43:46;;;;;;;23.05;13.73;;;10.10;99.90;;;;;;5139537;27;20449;-81
2022/03/17 01:46:14;;;;;;;27.25;17.27;;;10.10;99.90;;;;;;5122139;27;20082;-81
2022/03/17 01:48:41;;;;;;;32.53;20.88;;;10.20;99.90;;;;;;5105187;27;20043;-81
2022/03/17 01:51:07;;;;;;;29.38;19.80;;;10.20;99.90;;;;;;5139025;27;20485;-81
2022/03/17 01:53:33;;;;;;;26.92;18.40;;;10.30;99.90;;;;;;5103834;27;20062;-81
2022/03/17 01:55:59;;;;;;;27.67;15.85;;;10.30;99.90;;;;;;5138711;27;20126;-81
2022/03/17 01:58:25;;;;;;;31.00;21.77;;;10.30;99.90;;;;;;5121142;27;20034;-81
2022/03/17 02:00:51;;;;;;;25.10;14.57;;;10.30;99.90;;;;;;5104852;27;20063;-81
2022/03/17 02:03:18;;;;;;;24.15;14.35;;;10.30;99.90;;;;;;5138591;27;20050;-81
2022/03/17 02:05:43;;;;;;;27.33;18.08;;;10.30;99.90;;;;;;5121536;27;20087;-81
2022/03/17 02:08:10;;;;;;;29.42;20.65;;;10.40;99.90;;;;;;5120879;27;20038;-81
2022/03/17 02:13:21;;;;;;;28.63;21.00;;;10.50;99.90;;;;;;5135166;27;20092;-81
2022/03/17 02:15:54;;;;;;;29.50;20.17;;;10.60;99.90;;;;;;5118189;27;20039;-81
2022/03/17 02:18:21;;;;;;;31.10;20.77;;;10.60;99.90;;;;;;5117727;27;20032;-81
2022/03/17 02:20:48;;;;;;;29.42;21.30;;;10.60;99.90;;;;;;5118140;27;20043;-81
2022/03/17 02:26:04;;;;;;;28.55;20.13;;;10.70;99.90;;;;;;5114838;28;20482;-81
2022/03/17 02:28:31;;;;;;;29.15;18.00;;;10.70;99.90;;;;;;5131320;27;20031;-81
2022/03/17 02:30:59;;;;;;;29.73;21.60;;;10.60;99.90;;;;;;5097790;28;20048;-81
2022/03/17 02:33:25;;;;;;;27.60;18.73;;;10.60;99.90;;;;;;5080773;28;20062;-81
2022/03/17 02:35:53;;;;;;;23.10;13.32;;;10.60;99.90;;;;;;5081049;28;20032;-81
2022/03/17 02:38:20;;;;;;;31.50;22.55;;;10.60;99.90;;;;;;5079895;28;20046;-81
2022/03/17 02:40:52;;;;;;;27.05;18.17;;;10.60;99.90;;;;;;5096656;28;20122;-81
2022/03/17 02:43:19;;;;;;;23.48;16.17;;;10.60;99.90;;;;;;5097709;28;20035;-81
2022/03/17 02:45:46;;;;;;;27.25;18.30;;;10.60;99.90;;;;;;5131474;27;20119;-81
2022/03/17 02:48:12;;;;;;;30.58;22.42;;;10.60;99.90;;;;;;5098007;28;20032;-81
2022/03/17 02:50:38;;;;;;;29.08;19.17;;;10.60;99.90;;;;;;5080539;28;20071;-81
2022/03/17 02:53:09;;;;;;;30.52;22.33;;;10.60;99.90;;;;;;5096145;28;20078;-81
2022/03/17 02:55:36;;;;;;;29.35;21.75;;;10.60;99.90;;;;;;5096886;28;20028;-81
2022/03/17 02:58:04;;;;;;;30.83;21.95;;;10.60;99.90;;;;;;5097059;28;20036;-81
2022/03/17 03:00:30;;;;;;;29.30;21.65;;;10.60;99.90;;;;;;5080192;28;20035;-81
2022/03/17 03:02:56;;;;;;;31.05;22.15;;;10.60;99.90;;;;;;5096956;28;20402;-81
2022/03/17 03:05:22;;;;;;;30.27;21.83;;;10.60;99.90;;;;;;5114492;28;20095;-81
2022/03/17 03:07:48;;;;;;;30.67;21.27;;;10.50;99.90;;;;;;5096540;28;20040;-81
2022/03/17 03:10:14;;;;;;;29.50;21.55;;;10.50;99.90;;;;;;5117187;28;20046;-81
2022/03/17 03:12:40;;;;;;;32.13;23.13;;;10.50;99.90;;;;;;5100364;28;20043;-81
2022/03/17 03:15:06;;;;;;;23.08;13.27;;;10.50;99.90;;;;;;5084317;28;20100;-81
2022/03/17 03:17:32;;;;;;;29.52;19.60;;;10.60;99.90;;;;;;5117323;28;20035;-81
2022/03/17 03:19:58;;;;;;;29.63;21.48;;;10.60;99.90;;;;;;5117703;28;20569;-81
2022/03/17 03:22:28;;;;;;;32.53;23.95;;;10.50;99.90;;;;;;5100226;28;20074;-81
2022/03/17 03:24:56;;;;;;;30.50;22.50;;;10.50;99.90;;;;;;5084421;28;20099;-81
2022/03/17 03:27:23;;;;;;;30.83;23.27;;;10.50;99.90;;;;;;5100838;28;20397;-80
2022/03/17 03:29:49;;;;;;;33.22;24.20;;;10.50;99.90;;;;;;5067837;28;20047;-80
2022/03/17 03:32:14;;;;;;;24.65;17.83;;;10.40;99.90;;;;;;5083345;28;20061;-80
2022/03/17 03:34:40;;;;;;;32.67;23.58;;;10.40;99.90;;;;;;5083885;28;20039;-80
2022/03/17 03:37:24;;;;;;;32.90;23.70;;;10.40;99.90;;;;;;5117272;28;20060;-80
2022/03/17 03:39:54;;;;;;;30.77;22.13;;;10.30;99.90;;;;;;5088343;28;20043;-80
2022/03/17 03:42:21;;;;;;;34.58;24.90;;;10.30;99.90;;;;;;5116517;28;20549;-80
2022/03/17 03:44:48;;;;;;;32.67;22.85;;;10.30;99.90;;;;;;5100469;28;20050;-80
2022/03/17 03:47:14;;;;;;;33.70;25.33;;;10.30;99.90;;;;;;5083204;28;20126;-80
2022/03/17 03:49:41;;;;;;;32.40;23.33;;;10.30;99.90;;;;;;5100111;28;20039;-81
2022/03/17 03:52:12;;;;;;;31.40;24.10;;;10.30;99.90;;;;;;5082566;27;20123;-81
2022/03/17 03:54:39;;;;;;;29.88;22.73;;;10.30;99.90;;;;;;5120402;27;20058;-81
2022/03/17 03:57:05;;;;;;;31.30;24.35;;;10.30;99.90;;;;;;5086790;27;20039;-81
2022/03/17 03:59:31;;;;;;;32.28;24.00;;;10.30;99.90;;;;;;5104259;27;20371;-81
2022/03/17 04:01:58;;;;;;;30.73;23.77;;;10.30;99.90;;;;;;5086745;27;20073;-81
2022/03/17 04:04:24;;;;;;;31.52;23.17;;;10.30;99.90;;;;;;5086760;27;20035;-81
2022/03/17 04:06:53;;;;;;;29.90;24.83;;;10.40;99.90;;;;;;5102857;27;20050;-81
2022/03/17 04:09:20;;;;;;;30.48;23.92;;;10.40;99.90;;;;;;5103783;27;20035;-81
2022/03/17 04:11:46;;;;;;;31.50;24.92;;;10.30;99.90;;;;;;5103035;27;20139;-81
2022/03/17 04:14:14;;;;;;;32.67;24.88;;;10.40;99.90;;;;;;5103075;27;20074;-81
2022/03/17 04:16:40;;;;;;;31.83;24.63;;;10.40;99.90;;;;;;5120216;27;20049;-81
2022/03/17 04:19:06;;;;;;;31.73;25.02;;;10.40;99.90;;;;;;5103545;27;20042;-81
2022/03/17 04:21:32;;;;;;;31.88;24.65;;;10.40;99.90;;;;;;5102511;27;20035;-81
2022/03/17 04:23:58;;;;;;;31.13;23.80;;;10.40;99.90;;;;;;5113141;27;20035;-81
2022/03/17 04:26:24;;;;;;;33.08;25.42;;;10.40;99.90;;;;;;5102707;27;20043;-81
2022/03/17 04:28:50;;;;;;;30.75;24.95;;;10.40;99.90;;;;;;5103188;27;20039;-81
2022/03/17 04:31:15;;;;;;;32.55;25.92;;;10.50;99.90;;;;;;5102998;27;20027;-81
2022/03/17 04:33:41;;;;;;;32.83;24.55;;;10.50;99.90;;;;;;5086276;27;20039;-81
2022/03/17 04:36:07;;;;;;;32.40;24.42;;;10.50;99.90;;;;;;5085902;27;20045;-81
2022/03/17 04:38:33;;;;;;;30.73;25.08;;;10.50;99.90;;;;;;5102570;27;20038;-81
2022/03/17 04:40:59;;;;;;;33.50;26.60;;;10.40;99.90;;;;;;5119916;27;20031;-81
2022/03/17 04:43:25;;;;;;;32.28;25.90;;;10.60;99.90;;;;;;5103021;27;20039;-81
2022/03/17 04:45:51;;;;;;;32.03;25.80;;;10.60;99.90;;;;;;5103502;27;20138;-81
2022/03/17 04:48:17;;;;;;;33.92;26.50;;;10.60;99.90;;;;;;5085884;27;20039;-81
2022/03/17 04:50:43;;;;;;;35.00;28.25;;;10.50;99.90;;;;;;5102685;27;20108;-81
2022/03/17 04:53:27;;;;;;;36.60;29.48;;;10.50;99.90;;;;;;5102336;27;20067;-81
2022/03/17 04:55:54;;;;;;;37.25;29.58;;;10.40;99.90;;;;;;5120084;27;20035;-81
2022/03/17 04:58:20;;;;;;;41.22;33.25;;;10.40;99.90;;;;;;5102726;27;20035;-81
2022/03/17 05:00:46;;;;;;;39.58;32.80;;;10.30;99.90;;;;;;5103040;27;20034;-81
2022/03/17 05:03:12;;;;;;;45.25;35.17;;;10.30;99.90;;;;;;5085700;27;20038;-81
2022/03/17 05:05:39;;;;;;;46.28;35.05;;;10.10;99.90;;;;;;5119214;27;20118;-81
2022/03/17 05:08:05;;;;;;;48.55;38.03;;;10.10;99.90;;;;;;5101330;27;20153;-81
2022/03/17 05:10:33;;;;;;;52.83;41.75;;;10.00;99.90;;;;;;5118891;27;20043;-81
2022/03/17 05:12:59;;;;;;;60.05;45.03;;;10.00;99.90;;;;;;5101235;27;20100;-81
2022/03/17 05:15:25;;;;;;;59.13;44.95;;;9.90;99.90;;;;;;5101204;27;20118;-81
2022/03/17 05:17:51;;;;;;;63.53;47.75;;;9.90;99.90;;;;;;5117966;27;20073;-81
2022/03/17 05:20:17;;;;;;;67.20;49.97;;;9.80;99.90;;;;;;5117857;27;20512;-81
2022/03/17 05:22:43;;;;;;;64.05;48.92;;;9.80;99.90;;;;;;5100255;27;20092;-81
2022/03/17 05:25:11;;;;;;;74.60;51.65;;;9.70;99.90;;;;;;5100654;27;20074;-81
2022/03/17 05:27:41;;;;;;;79.47;54.00;;;9.70;99.90;;;;;;5100697;27;20050;-81
2022/03/17 05:30:10;;;;;;;71.40;52.00;;;9.70;99.90;;;;;;5117408;27;20069;-81
2022/03/17 05:32:36;;;;;;;74.00;52.40;;;9.70;99.90;;;;;;5100272;27;20084;-81
2022/03/17 05:35:02;;;;;;;75.22;52.58;;;9.70;99.90;;;;;;5100457;27;20398;-81
2022/03/17 05:37:28;;;;;;;85.68;55.88;;;9.70;99.90;;;;;;5116399;27;20035;-81
2022/03/17 05:39:54;;;;;;;70.43;48.00;;;9.60;99.90;;;;;;5100280;27;20095;-81
2022/03/17 05:42:20;;;;;;;67.32;48.85;;;9.60;99.90;;;;;;5117179;27;20039;-82
2022/03/17 05:44:45;;;;;;;56.28;39.60;;;9.70;99.90;;;;;;5121989;27;20042;-81
2022/03/17 05:47:11;;;;;;;44.83;31.40;;;9.80;99.90;;;;;;5107532;27;20035;-82
2022/03/17 05:49:37;;;;;;;33.85;25.08;;;9.80;99.90;;;;;;5104105;27;20043;-81
2022/03/17 05:52:03;;;;;;;23.13;16.52;;;9.80;99.90;;;;;;5112249;27;20386;-82
2022/03/17 05:54:28;;;;;;;15.73;11.57;;;9.70;99.90;;;;;;5104967;27;20035;-82
2022/03/17 05:56:54;;;;;;;14.52;10.63;;;9.50;99.90;;;;;;5112006;27;20035;-82
2022/03/17 05:59:20;;;;;;;12.68;9.75;;;9.50;99.90;;;;;;5114975;27;20045;-82
2022/03/17 06:01:46;;;;;;;12.90;8.95;;;9.30;99.90;;;;;;5113536;27;20039;-81
2022/03/17 06:04:12;;;;;;;11.45;8.63;;;9.20;99.90;;;;;;5120990;27;20053;-81
2022/03/17 06:06:37;;;;;;;10.70;8.45;;;9.20;99.90;;;;;;5124241;27;20039;-81
2022/03/17 06:09:03;;;;;;;10.82;8.60;;;9.10;99.90;;;;;;5093944;27;20043;-81
2022/03/17 06:11:29;;;;;;;11.35;9.20;;;9.00;99.90;;;;;;5102275;28;20063;-81
2022/03/17 06:13:56;;;;;;;10.98;9.00;;;8.90;99.90;;;;;;5103887;27;20081;-82
2022/03/17 06:16:23;;;;;;;13.32;9.55;;;9.00;99.90;;;;;;5096046;28;20043;-82
2022/03/17 06:18:49;;;;;;;13.52;9.15;;;8.80;99.90;;;;;;5111193;27;20027;-82
2022/03/17 06:21:15;;;;;;;16.30;10.48;;;9.00;99.90;;;;;;5116488;27;20044;-81
2022/03/17 06:23:43;;;;;;;14.23;10.60;;;8.70;99.90;;;;;;5124492;27;20046;-82
2022/03/17 06:26:09;;;;;;;14.30;10.52;;;8.70;99.90;;;;;;5082855;28;20099;-82
2022/03/17 06:28:35;;;;;;;17.02;11.00;;;8.70;99.90;;;;;;5097789;28;20043;-82
2022/03/17 06:31:01;;;;;;;18.00;10.90;;;8.60;99.90;;;;;;5105327;28;20035;-81
2022/03/17 06:33:29;;;;;;;16.58;10.45;;;8.70;99.90;;;;;;5088276;28;20494;-82
2022/03/17 06:35:55;;;;;;;19.00;12.00;;;8.60;99.90;;;;;;5115773;27;20440;-82
2022/03/17 06:38:21;;;;;;;16.25;11.02;;;8.60;99.90;;;;;;5093399;28;20031;-82
2022/03/17 06:40:47;;;;;;;14.70;10.35;;;8.50;99.90;;;;;;5098088;28;20050;-81
2022/03/17 06:43:14;;;;;;;17.80;11.40;;;8.60;99.90;;;;;;5087422;27;20039;-81
2022/03/17 06:45:41;;;;;;;16.35;10.35;;;8.50;99.90;;;;;;5086552;28;20469;-81
2022/03/17 06:48:07;;;;;;;16.50;11.30;;;8.50;99.90;;;;;;5120563;27;20189;-81
2022/03/17 06:50:33;;;;;;;16.52;10.77;;;8.40;99.90;;;;;;5105911;27;20122;-81
2022/03/17 06:52:59;;;;;;;14.98;10.90;;;8.50;99.90;;;;;;5082630;28;20032;-81
2022/03/17 06:55:25;;;;;;;17.02;10.43;;;8.50;99.90;;;;;;5114810;27;20038;-81
2022/03/17 06:57:51;;;;;;;17.17;11.02;;;8.50;99.90;;;;;;5093361;28;20032;-81
2022/03/17 07:00:18;;;;;;;17.92;10.23;;;8.50;99.90;;;;;;5111458;28;20502;-81
2022/03/17 07:02:44;;;;;;;18.02;10.18;;;8.50;99.90;;;;;;5108765;27;20113;-81
2022/03/17 07:05:10;;;;;;;17.65;9.52;;;8.50;99.90;;;;;;5122105;27;20035;-81
2022/03/17 07:07:36;;;;;;;15.07;9.25;;;8.50;99.90;;;;;;5112531;28;20092;-81
2022/03/17 07:10:03;;;;;;;17.42;9.52;;;8.50;99.90;;;;;;5096751;28;20082;-81
2022/03/17 07:12:29;;;;;;;16.05;8.90;;;8.50;99.90;;;;;;5100647;27;20051;-81
2022/03/17 07:14:54;;;;;;;18.45;9.30;;;8.50;99.90;;;;;;5102384;27;20187;-81
2022/03/17 07:17:22;;;;;;;17.08;8.93;;;8.50;99.90;;;;;;5136015;27;20046;-81
2022/03/17 07:22:27;;;;;;;16.52;8.13;;;8.40;99.90;;;;;;5119327;27;20039;-81
2022/03/17 07:24:53;;;;;;;16.52;8.43;;;8.40;99.90;;;;;;5106585;28;20035;-81
2022/03/17 07:27:21;;;;;;;19.25;8.27;;;8.30;99.90;;;;;;5099506;27;20050;-81
2022/03/17 07:29:48;;;;;;;15.82;8.07;;;8.30;99.90;;;;;;5103222;27;20038;-81
2022/03/17 07:32:13;;;;;;;17.98;7.97;;;8.30;99.90;;;;;;5106481;27;20039;-81
2022/03/17 07:34:39;;;;;;;15.98;7.70;;;8.30;99.90;;;;;;5105919;27;20122;-81
2022/03/17 07:37:05;;;;;;;14.55;6.55;;;8.30;99.90;;;;;;5122414;27;20133;-81
2022/03/17 07:39:31;;;;;;;14.55;5.55;;;8.30;99.90;;;;;;5106156;27;20034;-81
2022/03/17 07:41:56;;;;;;;11.43;4.82;;;8.30;99.90;;;;;;5139889;27;20501;-81
2022/03/17 07:44:22;;;;;;;12.18;4.38;;;8.30;99.90;;;;;;5135289;27;20122;-81
2022/03/17 07:46:48;;;;;;;12.15;3.72;;;8.30;99.90;;;;;;5085759;27;20035;-81
2022/03/17 07:49:14;;;;;;;14.20;3.50;;;8.30;99.90;;;;;;5102176;27;20118;-81
2022/03/17 07:51:40;;;;;;;12.45;3.70;;;8.30;99.90;;;;;;5118389;27;20049;-81
2022/03/17 07:54:07;;;;;;;12.25;3.45;;;8.30;99.90;;;;;;5102453;27;20043;-81
2022/03/17 07:56:33;;;;;;;13.13;3.10;;;8.30;99.90;;;;;;5102090;27;20557;-81
2022/03/17 07:59:00;;;;;;;10.35;2.80;;;8.40;99.90;;;;;;5119548;27;20494;-81
2022/03/17 08:01:26;;;;;;;11.98;2.85;;;8.40;99.90;;;;;;5119033;27;20031;-81
2022/03/17 08:03:55;;;;;;;15.63;3.33;;;8.40;99.90;;;;;;5085234;27;20043;-81
2022/03/17 08:06:25;;;;;;;12.70;2.88;;;8.30;99.90;;;;;;5101550;27;20054;-81
2022/03/17 08:08:51;;;;;;;10.38;2.65;;;8.30;99.90;;;;;;5101956;27;20035;-81
2022/03/17 08:11:17;;;;;;;11.48;2.85;;;8.30;99.90;;;;;;5118749;27;20409;-81
2022/03/17 08:13:43;;;;;;;10.88;2.25;;;8.30;99.90;;;;;;5085191;27;20039;-81
2022/03/17 08:16:10;;;;;;;8.77;2.10;;;8.30;99.90;;;;;;5101900;27;20043;-81
2022/03/17 08:18:37;;;;;;;9.18;1.90;;;8.30;99.90;;;;;;5102072;27;20043;-81
2022/03/17 08:21:03;;;;;;;7.20;1.80;;;8.40;99.90;;;;;;5118490;27;20031;-81
2022/03/17 08:23:29;;;;;;;10.20;1.90;;;8.30;99.90;;;;;;5117216;27;20144;-81
2022/03/17 08:25:54;;;;;;;12.02;2.20;;;8.30;99.90;;;;;;5119705;27;20524;-81
2022/03/17 08:28:20;;;;;;;12.00;2.03;;;8.20;99.90;;;;;;5115154;27;20066;-81
2022/03/17 08:30:47;;;;;;;10.80;1.80;;;8.30;99.90;;;;;;5103738;27;20144;-81
2022/03/17 08:33:14;;;;;;;10.40;2.13;;;8.20;99.90;;;;;;5114449;27;20030;-81
2022/03/17 08:35:40;;;;;;;9.65;1.98;;;8.20;99.90;;;;;;5102371;27;20031;-81
2022/03/17 08:38:07;;;;;;;9.95;1.95;;;8.20;99.90;;;;;;5102594;27;20076;-81
2022/03/17 08:40:34;;;;;;;9.85;2.00;;;8.20;99.90;;;;;;5114406;27;20034;-81
2022/03/17 08:42:59;;;;;;;12.82;2.25;;;8.20;99.90;;;;;;5114718;27;20046;-81
2022/03/17 08:50:54;;;;;;;11.40;2.22;;;8.20;99.90;;;;;;5091922;27;20487;-81
2022/03/17 08:53:20;;;;;;;15.65;2.55;;;8.20;99.90;;;;;;5099662;27;20035;-81
2022/03/17 08:55:46;;;;;;;16.02;2.60;;;8.30;99.90;;;;;;5117475;27;20417;-81
2022/03/17 08:58:12;;;;;;;12.15;2.33;;;8.30;99.90;;;;;;5069665;27;20035;-81
2022/03/17 09:00:40;;;;;;;11.32;2.55;;;8.30;99.90;;;;;;5110151;27;20050;-81
2022/03/17 09:03:07;;;;;;;12.45;2.40;;;8.30;99.90;;;;;;5108892;27;20043;-81
2022/03/17 09:05:35;;;;;;;11.98;2.20;;;8.30;99.90;;;;;;5103450;27;20566;-81
2022/03/17 09:08:05;;;;;;;12.32;2.22;;;8.30;99.90;;;;;;5119569;27;20038;-81
2022/03/17 09:10:32;;;;;;;12.55;2.33;;;8.30;99.90;;;;;;5105673;27;20094;-81
2022/03/17 09:13:05;;;;;;;10.20;1.90;;;8.30;99.90;;;;;;5118001;27;20047;-81
2022/03/17 09:15:32;;;;;;;14.38;2.30;;;8.30;99.90;;;;;;5098479;27;20049;-81
2022/03/17 09:17:58;;;;;;;13.18;2.33;;;8.30;99.90;;;;;;5108109;27;20035;-81
2022/03/17 09:20:24;;;;;;;14.18;2.50;;;8.30;99.90;;;;;;5111418;27;20140;-81
2022/03/17 09:22:50;;;;;;;15.15;2.40;;;8.30;99.90;;;;;;5104786;27;20054;-81
2022/03/17 09:25:18;;;;;;;16.05;2.53;;;8.20;99.90;;;;;;5110311;27;20051;-81
2022/03/17 09:27:44;;;;;;;13.90;2.47;;;8.20;99.90;;;;;;5102400;27;20118;-81
2022/03/17 09:30:10;;;;;;;13.90;2.60;;;8.20;99.90;;;;;;5109479;27;20046;-81
2022/03/17 09:32:36;;;;;;;12.52;2.45;;;8.20;99.90;;;;;;5117055;27;20037;-81
2022/03/17 09:35:02;;;;;;;13.32;2.58;;;8.20;99.90;;;;;;5091024;27;20114;-82
2022/03/17 09:37:28;;;;;;;13.15;2.58;;;8.20;99.90;;;;;;5115836;27;20043;-82
2022/03/17 09:39:54;;;;;;;16.42;2.78;;;8.20;99.90;;;;;;5115735;27;20382;-82
2022/03/17 09:42:21;;;;;;;14.68;2.58;;;8.30;99.90;;;;;;5116671;27;20027;-82
2022/03/17 09:44:52;;;;;;;11.50;2.33;;;8.40;99.90;;;;;;5116514;27;20513;-82
2022/03/17 09:47:21;;;;;;;15.35;2.90;;;8.40;99.90;;;;;;5107688;27;20035;-82
2022/03/17 09:49:54;;;;;;;13.95;2.72;;;8.50;99.90;;;;;;5116242;27;20047;-82
2022/03/17 09:52:21;;;;;;;13.73;2.65;;;8.50;99.90;;;;;;5118520;27;20039;-82
2022/03/17 09:54:48;;;;;;;14.65;2.60;;;8.50;99.90;;;;;;5110712;27;20103;-82
2022/03/17 09:57:16;;;;;;;14.10;2.40;;;8.50;99.90;;;;;;5088216;27;20084;-82
2022/03/17 09:59:44;;;;;;;13.15;2.63;;;8.40;99.90;;;;;;5099338;27;20039;-81
2022/03/17 10:02:16;;;;;;;13.13;2.35;;;8.50;99.90;;;;;;5102351;27;20047;-81
2022/03/17 10:04:44;;;;;;;15.05;2.72;;;8.50;99.90;;;;;;5104870;27;20034;-81
2022/03/17 10:07:16;;;;;;;14.40;2.55;;;8.60;99.90;;;;;;5108675;27;20143;-80
2022/03/17 10:09:43;;;;;;;16.77;2.58;;;8.60;99.90;;;;;;5090525;27;20043;-80
2022/03/17 10:12:11;;;;;;;15.77;2.65;;;8.70;99.90;;;;;;5102716;27;20090;-81
2022/03/17 10:14:40;;;;;;;15.50;2.47;;;8.80;99.90;;;;;;5101628;27;20060;-81
2022/03/17 10:17:10;;;;;;;14.73;2.40;;;8.90;99.90;;;;;;5123065;27;20039;-81
2022/03/17 10:19:36;;;;;;;13.38;2.67;;;8.90;99.90;;;;;;5132520;27;20034;-80
2022/03/17 10:22:14;;;;;;;10.85;2.30;;;8.80;99.90;;;;;;5128324;27;20529;-80
2022/03/17 10:24:52;;;;;;;10.88;2.35;;;8.90;99.90;;;;;;5086374;27;20437;-79
2022/03/17 10:27:40;;;;;;;15.95;2.67;;;8.90;99.90;;;;;;5107462;27;20035;-79
2022/03/17 10:30:07;;;;;;;11.60;2.58;;;9.00;99.90;;;;;;5124851;27;20035;-79
2022/03/17 10:32:33;;;;;;;13.45;2.45;;;9.10;99.90;;;;;;5115901;27;20031;-81
2022/03/17 10:34:59;;;;;;;13.48;2.45;;;9.20;99.90;;;;;;5105734;27;20046;-81
2022/03/17 10:37:26;;;;;;;14.35;2.40;;;9.40;99.90;;;;;;5114902;27;20027;-80
2022/03/17 10:39:56;;;;;;;14.82;2.50;;;9.60;99.90;;;;;;5138624;27;20037;-80
2022/03/17 10:42:29;;;;;;;14.85;2.50;;;9.80;99.90;;;;;;5114614;27;20494;-80
2022/03/17 10:45:07;;;;;;;17.45;2.70;;;9.80;99.90;;;;;;5104260;27;20138;-80
2022/03/17 10:47:37;;;;;;;12.27;2.60;;;9.90;99.90;;;;;;5134099;27;20033;-80
2022/03/17 10:50:07;;;;;;;13.85;2.33;;;9.90;99.90;;;;;;5135446;27;20099;-80
2022/03/17 10:52:49;;;;;;;13.63;2.72;;;9.90;99.90;;;;;;5118638;27;20570;-80
2022/03/17 10:55:37;;;;;;;13.40;2.58;;;10.10;99.90;;;;;;5106516;27;20037;-79
2022/03/17 10:58:13;;;;;;;15.30;2.58;;;10.30;99.90;;;;;;5127544;27;20084;-79
2022/03/17 11:00:55;;;;;;;15.48;3.00;;;10.60;99.90;;;;;;5127197;27;20034;-81
2022/03/17 11:03:21;;;;;;;14.57;2.50;;;10.80;99.90;;;;;;5125285;27;20091;-81
2022/03/17 11:05:51;;;;;;;9.70;2.10;;;10.90;99.90;;;;;;5124682;27;20322;-81
2022/03/17 11:08:18;;;;;;;10.82;2.00;;;11.10;99.90;;;;;;5124543;27;20042;-81
2022/03/17 11:10:44;;;;;;;11.75;1.92;;;11.40;99.90;;;;;;5141530;27;20059;-81
2022/03/17 11:13:11;;;;;;;11.38;2.15;;;11.60;99.90;;;;;;5110413;27;20506;-80
2022/03/17 11:16:09;;;;;;;11.45;2.20;;;12.00;99.90;;;;;;5103398;27;20042;-80
2022/03/17 11:18:37;;;;;;;10.98;2.20;;;12.30;99.40;;;;;;5122723;28;20061;-80
2022/03/17 11:21:21;;;;;;;7.88;2.13;;;12.50;97.00;;;;;;5140815;27;20038;-80
2022/03/17 11:23:59;;;;;;;9.57;2.03;;;12.50;94.40;;;;;;5113241;28;20043;-80
2022/03/17 11:26:36;;;;;;;11.98;2.13;;;12.50;96.20;;;;;;5128049;27;20035;-80
2022/03/17 11:29:04;;;;;;;8.77;2.00;;;12.50;93.40;;;;;;5131874;27;20039;-80
2022/03/17 11:31:57;;;;;;;9.52;2.20;;;12.20;92.30;;;;;;5110387;27;20084;-83
2022/03/17 11:34:38;;;;;;;12.38;2.28;;;12.20;94.60;;;;;;5103778;28;20078;-81
2022/03/17 11:37:19;;;;;;;9.45;2.20;;;12.20;93.70;;;;;;5118946;28;20039;-81
2022/03/17 11:39:56;;;;;;;12.27;2.35;;;12.50;95.30;;;;;;5120616;28;20043;-81
2022/03/17 11:42:31;;;;;;;10.82;2.30;;;12.60;94.50;;;;;;5122065;28;20538;-81
2022/03/17 11:45:15;;;;;;;9.82;2.22;;;12.40;92.40;;;;;;5121880;28;20043;-81
2022/03/17 11:47:44;;;;;;;9.40;2.00;;;12.10;92.10;;;;;;5122080;28;20035;-81
2022/03/17 11:50:28;;;;;;;10.75;1.98;;;12.00;93.10;;;;;;5089385;28;20035;-81
2022/03/17 11:53:05;;;;;;;11.13;2.10;;;11.90;90.20;;;;;;5105792;28;20077;-81
2022/03/17 11:55:43;;;;;;;11.88;2.25;;;11.80;91.80;;;;;;5091475;28;20368;-81
2022/03/17 11:58:46;;;;;;;9.95;2.22;;;11.70;90.90;;;;;;5122644;28;20050;-81
2022/03/17 12:01:22;;;;;;;9.98;2.17;;;11.90;93.30;;;;;;5119259;28;20054;-81
2022/03/17 12:03:55;;;;;;;8.90;2.10;;;12.10;90.40;;;;;;5130185;28;20035;-80
2022/03/17 12:06:23;;;;;;;8.38;2.08;;;12.30;89.20;;;;;;5136736;27;20043;-82
2022/03/17 12:09:03;;;;;;;10.85;2.30;;;12.30;90.90;;;;;;5120396;28;20067;-81
2022/03/17 12:11:31;;;;;;;10.63;2.20;;;12.50;90.90;;;;;;5113288;27;20135;-81
2022/03/17 12:14:18;;;;;;;10.45;2.13;;;12.50;87.80;;;;;;5120990;27;20102;-82
2022/03/17 12:16:48;;;;;;;9.98;2.10;;;12.50;90.00;;;;;;5126963;27;20027;-81
2022/03/17 12:19:26;;;;;;;12.05;2.30;;;12.70;91.40;;;;;;5130877;27;20092;-81
2022/03/17 12:21:58;;;;;;;10.02;2.20;;;12.80;86.90;;;;;;5122407;27;20035;-81
2022/03/17 12:24:47;;;;;;;11.48;2.28;;;12.50;78.80;;;;;;5120763;27;20035;-81
2022/03/17 12:27:29;;;;;;;10.75;2.10;;;12.20;80.60;;;;;;5120204;27;20051;-81
2022/03/17 12:30:04;;;;;;;9.50;2.38;;;12.20;82.50;;;;;;5115202;27;20035;-80
2022/03/17 12:32:34;;;;;;;9.80;1.85;;;12.10;82.80;;;;;;5107930;27;20541;-80
2022/03/17 12:35:01;;;;;;;11.80;2.33;;;12.30;85.30;;;;;;5108984;27;20031;-80
2022/03/17 12:37:29;;;;;;;10.45;2.25;;;12.50;86.50;;;;;;5108451;27;20118;-80
2022/03/17 12:39:57;;;;;;;10.35;2.38;;;12.60;83.80;;;;;;5106094;27;20057;-80
2022/03/17 12:42:24;;;;;;;11.25;2.33;;;12.80;85.10;;;;;;5102848;27;20333;-80
2022/03/17 12:44:51;;;;;;;10.60;2.45;;;12.90;80.70;;;;;;5127750;27;20035;-80
2022/03/17 12:47:19;;;;;;;10.68;2.33;;;12.60;77.30;;;;;;5111610;27;20559;-80
2022/03/17 12:49:45;;;;;;;12.93;2.60;;;12.40;80.00;;;;;;5121158;27;20053;-80
2022/03/17 12:52:18;;;;;;;12.57;2.53;;;12.30;82.80;;;;;;5109442;27;20035;-80
2022/03/17 12:54:45;;;;;;;10.80;2.70;;;12.30;81.10;;;;;;5097849;27;20050;-81
2022/03/17 12:57:11;;;;;;;12.82;2.60;;;12.50;84.40;;;;;;5131163;27;20043;-81